Time;durP1;ratioP1;P1;durP2;ratioP2;P2;SDS_P1;SDS_P2;PMS_P1;PMS_P2;Temp;Humidity;BMP_temperature;BMP_pressure;BME280_temperature;BME280_humidity;BME280_pressure;Samples;Min_cycle;Max_cycle;Signal;HPM_P1;HPM_P2
2021/12/21 00:00:00;;;;;;;26.92;12.60;;;;;;;-1.23;91.41;102738.88;5089055;28;20020;-83
2021/12/21 00:02:26;;;;;;;25.40;11.52;;;;;;;-1.27;91.20;102732.81;5088912;28;20491;-83
2021/12/21 00:04:52;;;;;;;30.50;12.43;;;;;;;-1.31;91.67;102731.09;5088637;28;20115;-83
2021/12/21 00:07:18;;;;;;;26.90;11.77;;;;;;;-1.33;91.71;102727.63;5088539;28;20051;-83
2021/12/21 00:09:43;;;;;;;23.77;12.10;;;;;;;-1.42;91.74;102720.69;5088953;28;20063;-84
2021/12/21 00:12:12;;;;;;;25.05;12.68;;;;;;;-1.37;91.56;102731.91;5089238;28;20084;-84
2021/12/21 00:14:59;;;;;;;26.42;12.70;;;;;;;-1.41;91.49;102727.59;5090574;28;20077;-84
2021/12/21 00:23:04;;;;;;;24.97;12.33;;;;;;;-1.47;91.68;102724.97;5085508;28;20039;-83
2021/12/21 00:25:30;;;;;;;32.00;12.18;;;;;;;-1.52;91.47;102721.50;5079965;28;20646;-84
2021/12/21 00:27:55;;;;;;;29.40;13.23;;;;;;;-1.58;92.46;102711.16;5087871;28;20032;-84
2021/12/21 00:30:22;;;;;;;29.35;12.95;;;;;;;-1.54;91.42;102718.06;5087728;28;20031;-84
2021/12/21 00:32:48;;;;;;;28.80;13.07;;;;;;;-1.64;91.09;102700.78;5088436;28;20103;-84
2021/12/21 00:35:13;;;;;;;28.98;13.10;;;;;;;-1.59;91.54;102712.88;5087528;28;20189;-84
2021/12/21 00:37:39;;;;;;;27.60;12.57;;;;;;;-1.65;91.30;102710.22;5088142;28;20354;-84
2021/12/21 00:40:05;;;;;;;24.63;12.32;;;;;;;-1.70;91.63;102705.88;5089606;28;20024;-84
2021/12/21 00:42:31;;;;;;;31.73;13.38;;;;;;;-1.70;91.54;102700.72;5090973;28;20296;-84
2021/12/21 00:44:56;;;;;;;29.38;13.27;;;;;;;-1.71;91.24;102699.88;5092423;28;20107;-84
2021/12/21 00:47:21;;;;;;;27.08;12.63;;;;;;;-1.69;91.41;102702.47;5091438;28;20243;-84
2021/12/21 00:49:57;;;;;;;29.98;13.25;;;;;;;-1.71;91.78;102704.16;5091536;28;20020;-84
2021/12/21 00:52:22;;;;;;;23.75;12.15;;;;;;;-1.74;91.35;102699.00;5091641;28;20023;-84
2021/12/21 00:54:48;;;;;;;24.23;11.95;;;;;;;-1.80;92.12;102686.06;5091712;28;20101;-84
2021/12/21 00:57:13;;;;;;;34.88;15.85;;;;;;;-1.74;91.60;102699.84;5090128;28;20066;-84
2021/12/21 00:59:38;;;;;;;32.00;15.52;;;;;;;-1.78;92.33;102702.41;5086594;28;20372;-84
2021/12/21 01:02:04;;;;;;;29.65;14.93;;;;;;;-1.84;92.06;102692.03;5092753;28;20008;-83
2021/12/21 01:04:35;;;;;;;33.33;13.73;;;;;;;-1.75;91.94;102707.59;5090177;28;20032;-84
2021/12/21 01:12:09;;;;;;;28.63;13.07;;;;;;;-1.88;91.34;102695.47;5092188;28;20028;-83
2021/12/21 01:17:28;;;;;;;29.58;12.85;;;;;;;-1.92;91.78;102698.03;5089854;28;20453;-83
2021/12/21 01:20:06;;;;;;;26.77;12.35;;;;;;;-1.97;91.72;102699.72;5092171;28;20028;-84
2021/12/21 01:23:07;;;;;;;28.08;12.25;;;;;;;-2.00;91.79;102699.69;5091002;28;20468;-83
2021/12/21 01:33:33;;;;;;;25.77;11.98;;;;;;;-2.11;92.02;102690.97;5084553;28;20112;-82
2021/12/21 01:36:02;;;;;;;25.75;12.00;;;;;;;-2.04;92.21;102704.78;5091443;28;20536;-83
2021/12/21 01:38:36;;;;;;;26.13;12.40;;;;;;;-2.08;91.67;102708.19;5089609;28;20090;-82
2021/12/21 01:51:23;;;;;;;30.00;12.68;;;;;;;-2.22;91.35;102679.72;5081638;28;20043;-82
2021/12/21 01:53:50;;;;;;;27.27;11.25;;;;;;;-2.24;91.79;102676.28;5088914;28;20020;-82
2021/12/21 01:56:17;;;;;;;25.55;11.50;;;;;;;-2.24;91.46;102673.69;5090661;28;20028;-82
2021/12/21 01:58:43;;;;;;;30.63;11.70;;;;;;;-2.16;91.96;102691.78;5090530;28;20035;-82
2021/12/21 02:01:14;;;;;;;30.13;12.20;;;;;;;-2.19;91.79;102686.63;5090356;28;20472;-83
2021/12/21 02:03:46;;;;;;;25.58;11.75;;;;;;;-2.26;91.56;102673.69;5089009;28;20039;-82
2021/12/21 02:06:19;;;;;;;25.08;11.90;;;;;;;-2.19;91.75;102684.03;5086190;28;20391;-82
2021/12/21 02:08:45;;;;;;;29.77;12.02;;;;;;;-2.24;91.71;102673.69;5089550;28;20059;-82
2021/12/21 02:11:15;;;;;;;25.88;12.02;;;;;;;-2.25;91.66;102674.53;5091405;28;20108;-82
2021/12/21 02:13:47;;;;;;;27.42;11.52;;;;;;;-2.21;91.53;102682.31;5097114;28;20028;-82
2021/12/21 02:16:13;;;;;;;29.25;12.45;;;;;;;-2.29;91.96;102672.78;5090912;28;20106;-83
2021/12/21 02:18:52;;;;;;;27.80;13.05;;;;;;;-2.23;91.60;102678.00;5090579;28;20618;-82
2021/12/21 02:21:29;;;;;;;30.35;12.40;;;;;;;-2.29;91.38;102667.63;5089856;28;20031;-83
2021/12/21 02:23:59;;;;;;;29.60;12.55;;;;;;;-2.28;91.59;102677.09;5089812;28;20067;-82
2021/12/21 02:29:24;;;;;;;30.00;12.13;;;;;;;-2.34;91.75;102671.91;5082126;28;20096;-82
2021/12/21 02:31:52;;;;;;;26.65;12.85;;;;;;;-2.34;91.70;102675.34;5089352;28;20051;-82
2021/12/21 02:34:18;;;;;;;28.80;12.02;;;;;;;-2.41;92.00;102668.38;5089914;28;20059;-82
2021/12/21 02:36:47;;;;;;;34.72;12.73;;;;;;;-2.40;91.99;102666.66;5090229;28;20032;-81
2021/12/21 02:39:13;;;;;;;24.48;11.82;;;;;;;-2.41;91.57;102662.34;5090314;28;20109;-81
2021/12/21 02:41:40;;;;;;;29.83;12.32;;;;;;;-2.39;91.54;102669.28;5085564;28;20786;-82
2021/12/21 02:44:06;;;;;;;26.52;11.55;;;;;;;-2.39;92.14;102665.84;5083213;28;20566;-82
2021/12/21 02:46:32;;;;;;;31.35;12.57;;;;;;;-2.48;91.78;102656.28;5088040;28;20032;-82
2021/12/21 02:48:57;;;;;;;28.92;11.50;;;;;;;-2.46;91.49;102661.44;5089205;28;20154;-81
2021/12/21 02:51:23;;;;;;;30.25;12.50;;;;;;;-2.53;91.51;102658.81;5088878;28;20438;-82
2021/12/21 02:53:49;;;;;;;28.80;12.00;;;;;;;-2.45;91.43;102670.91;5088434;28;20092;-81
2021/12/21 02:56:14;;;;;;;33.58;13.02;;;;;;;-2.49;91.60;102661.44;5089103;28;20031;-82
2021/12/21 02:58:41;;;;;;;32.45;12.60;;;;;;;-2.55;91.73;102654.50;5088172;28;20024;-82
2021/12/21 03:01:09;;;;;;;29.92;12.60;;;;;;;-2.52;91.75;102664.84;5080332;28;20031;-82
2021/12/21 03:03:35;;;;;;;32.83;12.85;;;;;;;-2.55;91.55;102644.22;5086781;28;20020;-82
2021/12/21 03:06:03;;;;;;;28.80;12.05;;;;;;;-2.56;91.36;102660.50;5088122;28;20054;-82
2021/12/21 03:08:39;;;;;;;29.08;12.68;;;;;;;-2.64;91.19;102645.00;5088774;28;20384;-82
2021/12/21 03:11:34;;;;;;;26.52;12.02;;;;;;;-2.62;91.53;102658.75;5088916;28;20055;-82
2021/12/21 03:14:08;;;;;;;29.40;12.57;;;;;;;-2.64;91.32;102655.28;5092011;28;20396;-81
2021/12/21 03:16:36;;;;;;;26.00;11.75;;;;;;;-2.60;91.53;102658.75;5081736;28;20024;-81
2021/12/21 03:19:04;;;;;;;30.55;12.43;;;;;;;-2.69;91.75;102656.97;5089092;28;20181;-82
2021/12/21 03:21:29;;;;;;;29.80;12.25;;;;;;;-2.68;91.43;102653.53;5086499;28;20104;-83
2021/12/21 03:23:55;;;;;;;30.80;12.20;;;;;;;-2.65;91.64;102656.16;5087421;28;20594;-82
2021/12/21 03:26:21;;;;;;;28.17;12.02;;;;;;;-2.73;91.43;102639.75;5089424;28;20495;-83
2021/12/21 03:28:46;;;;;;;34.30;12.75;;;;;;;-2.63;91.73;102662.19;5089960;28;20507;-83
2021/12/21 03:31:14;;;;;;;29.20;11.73;;;;;;;-2.73;91.38;102644.91;5088748;28;20067;-83
2021/12/21 03:33:41;;;;;;;34.70;13.30;;;;;;;-2.67;91.46;102657.84;5084720;28;20032;-82
2021/12/21 03:36:06;;;;;;;31.73;13.73;;;;;;;-2.69;91.95;102650.94;5089873;28;20059;-83
2021/12/21 03:38:33;;;;;;;35.83;12.93;;;;;;;-2.73;91.52;102644.03;5088895;28;20067;-83
2021/12/21 03:41:05;;;;;;;29.98;12.77;;;;;;;-2.68;91.58;102648.38;5090164;28;20024;-82
2021/12/21 03:43:31;;;;;;;32.35;12.95;;;;;;;-2.75;91.48;102644.03;5089374;28;20122;-81
2021/12/21 03:46:10;;;;;;;28.33;11.90;;;;;;;-2.74;91.28;102647.47;5089039;28;20035;-82
2021/12/21 03:48:38;;;;;;;35.05;12.50;;;;;;;-2.77;91.73;102638.00;5077809;28;20024;-82
2021/12/21 03:51:04;;;;;;;28.80;12.43;;;;;;;-2.77;91.40;102638.00;5086736;28;20097;-82
2021/12/21 03:53:29;;;;;;;32.13;12.45;;;;;;;-2.72;91.27;102646.63;5088205;28;20028;-82
2021/12/21 03:56:13;;;;;;;27.02;12.27;;;;;;;-2.76;91.96;102644.88;5089683;28;20038;-82
2021/12/21 03:58:38;;;;;;;30.60;12.40;;;;;;;-2.75;91.12;102645.75;5081785;28;20028;-81
2021/12/21 04:01:04;;;;;;;23.10;11.68;;;;;;;-2.83;91.50;102633.63;5088800;28;20035;-81
2021/12/21 04:03:29;;;;;;;28.40;12.23;;;;;;;-2.83;91.53;102627.63;5088250;28;20384;-82
2021/12/21 04:05:55;;;;;;;30.67;12.43;;;;;;;-2.80;91.06;102637.06;5087172;28;20028;-82
2021/12/21 04:08:20;;;;;;;25.13;11.73;;;;;;;-2.82;91.65;102637.06;5088016;28;20024;-82
2021/12/21 04:10:45;;;;;;;26.05;11.98;;;;;;;-2.83;90.96;102637.91;5088967;28;20106;-81
2021/12/21 04:13:13;;;;;;;32.88;13.15;;;;;;;-2.83;91.43;102632.75;5092724;28;20028;-81
2021/12/21 04:15:42;;;;;;;28.38;12.55;;;;;;;-2.90;91.21;102625.84;5092892;28;20791;-82
2021/12/21 04:18:13;;;;;;;32.00;12.93;;;;;;;-2.89;91.04;102643.88;5093064;28;20027;-81
2021/12/21 04:20:40;;;;;;;26.38;12.45;;;;;;;-2.93;90.85;102633.53;5084685;28;20032;-81
2021/12/21 04:23:07;;;;;;;33.05;13.32;;;;;;;-2.92;90.96;102635.25;5086952;28;20391;-81
2021/12/21 04:25:33;;;;;;;31.88;13.02;;;;;;;-2.98;90.96;102630.03;5091973;28;20032;-82
2021/12/21 04:27:59;;;;;;;29.88;12.60;;;;;;;-2.95;91.22;102630.06;5091050;28;20498;-81
2021/12/21 04:30:25;;;;;;;29.52;12.32;;;;;;;-2.97;91.31;102629.19;5090293;28;20111;-81
2021/12/21 04:32:50;;;;;;;29.48;12.85;;;;;;;-2.99;90.96;102629.19;5092858;28;20048;-81
2021/12/21 04:35:19;;;;;;;31.05;13.00;;;;;;;-2.96;90.75;102636.94;5091899;28;20391;-81
2021/12/21 04:37:57;;;;;;;35.25;12.48;;;;;;;-2.99;91.34;102642.06;5090207;28;20398;-81
2021/12/21 04:40:35;;;;;;;31.17;12.32;;;;;;;-3.05;90.95;102626.53;5089647;28;20101;-81
2021/12/21 04:43:01;;;;;;;31.48;12.73;;;;;;;-3.10;90.81;102614.47;5091157;28;20452;-81
2021/12/21 04:45:26;;;;;;;28.25;12.93;;;;;;;-3.10;90.98;102617.06;5092130;28;20150;-81
2021/12/21 04:47:51;;;;;;;29.77;12.52;;;;;;;-3.06;91.37;102634.25;5092288;28;20030;-81
2021/12/21 04:50:17;;;;;;;29.83;13.15;;;;;;;-3.16;91.34;102615.28;5092215;28;20072;-81
2021/12/21 04:52:42;;;;;;;29.08;13.20;;;;;;;-3.18;91.08;102617.84;5092786;28;20107;-81
2021/12/21 04:55:08;;;;;;;24.83;12.57;;;;;;;-3.10;91.79;102632.50;5088236;28;20333;-81
2021/12/21 04:57:33;;;;;;;30.40;12.55;;;;;;;-3.12;90.90;102629.91;5090879;28;20027;-81
2021/12/21 04:59:59;;;;;;;30.67;13.20;;;;;;;-3.13;91.03;102627.31;5092686;28;20028;-82
2021/12/21 05:02:24;;;;;;;28.50;12.68;;;;;;;-3.16;91.11;102623.00;5083991;28;20024;-83
2021/12/21 05:04:49;;;;;;;33.05;13.25;;;;;;;-3.18;90.96;102625.56;5084792;28;20020;-83
2021/12/21 05:07:22;;;;;;;27.08;12.30;;;;;;;-3.20;91.12;102621.25;5090648;28;20032;-83
2021/12/21 05:09:55;;;;;;;31.17;12.98;;;;;;;-3.21;90.90;102625.50;5091170;28;20015;-83
2021/12/21 05:12:20;;;;;;;31.15;12.73;;;;;;;-3.24;90.97;102622.88;5091982;28;20429;-83
2021/12/21 05:14:46;;;;;;;26.10;12.48;;;;;;;-3.25;90.87;102618.59;5088673;28;20032;-81
2021/12/21 05:17:14;;;;;;;28.58;13.05;;;;;;;-3.17;91.04;102634.16;5091474;28;20051;-82
2021/12/21 05:19:40;;;;;;;32.58;13.68;;;;;;;-3.24;91.35;102625.47;5090774;28;20032;-81
2021/12/21 05:22:06;;;;;;;30.10;12.93;;;;;;;-3.23;90.68;102627.19;5089774;28;20024;-81
2021/12/21 05:24:32;;;;;;;28.13;13.07;;;;;;;-3.19;91.16;102639.28;5089985;28;20095;-81
2021/12/21 05:26:57;;;;;;;27.42;13.32;;;;;;;-3.24;91.31;102633.19;5090559;28;20031;-81
2021/12/21 05:29:23;;;;;;;33.78;13.88;;;;;;;-3.22;91.08;102639.22;5091081;28;20032;-81
2021/12/21 05:31:49;;;;;;;29.77;12.80;;;;;;;-3.26;90.92;102627.16;5088978;28;20077;-81
2021/12/21 05:34:14;;;;;;;29.15;13.13;;;;;;;-3.24;91.06;102634.88;5090470;28;20084;-80
2021/12/21 05:36:39;;;;;;;30.42;13.10;;;;;;;-3.30;90.82;102630.53;5091279;28;20035;-81
2021/12/21 05:39:14;;;;;;;34.08;13.85;;;;;;;-3.26;90.89;102631.44;5089323;28;20104;-81
2021/12/21 05:41:50;;;;;;;25.45;12.10;;;;;;;-3.27;90.77;102633.16;5090935;28;20632;-81
2021/12/21 05:44:17;;;;;;;29.05;13.55;;;;;;;-3.26;90.85;102629.72;5090855;28;20024;-81
2021/12/21 05:46:42;;;;;;;31.15;13.43;;;;;;;-3.35;90.66;102623.63;5090947;28;20488;-81
2021/12/21 05:49:08;;;;;;;29.60;13.45;;;;;;;-3.33;90.86;102630.50;5090866;28;20062;-81
2021/12/21 05:51:33;;;;;;;32.85;13.70;;;;;;;-3.29;91.07;102640.00;5082174;28;20024;-81
2021/12/21 05:53:58;;;;;;;32.03;13.63;;;;;;;-3.37;91.04;102633.88;5091707;28;20528;-81
2021/12/21 05:56:24;;;;;;;30.05;13.63;;;;;;;-3.38;90.93;102634.75;5090289;28;20170;-81
2021/12/21 05:58:49;;;;;;;27.40;13.27;;;;;;;-3.32;90.75;102646.81;5090858;28;20038;-81
2021/12/21 06:01:15;;;;;;;29.30;13.68;;;;;;;-3.37;90.91;102627.88;5091056;28;20484;-81
2021/12/21 06:03:40;;;;;;;30.63;13.77;;;;;;;-3.37;91.24;102633.03;5091302;28;20034;-81
2021/12/21 06:06:13;;;;;;;28.02;13.38;;;;;;;-3.40;90.77;102628.72;5091222;28;20028;-81
2021/12/21 06:08:39;;;;;;;33.20;13.15;;;;;;;-3.44;90.66;102632.09;5086226;28;20017;-81
2021/12/21 06:11:06;;;;;;;35.10;14.27;;;;;;;-3.44;90.54;102626.09;5090156;28;20023;-81
2021/12/21 06:25:22;;;;;;;34.75;13.57;;;;;;;-3.47;90.72;102637.19;5089932;28;20116;-81
2021/12/21 06:27:28;;;;;;;33.10;13.95;;;;;;;-3.55;90.92;102623.38;5085249;28;20047;-81
2021/12/21 06:29:54;;;;;;;30.30;13.15;;;;;;;-3.48;90.50;102641.47;5090722;28;20028;-81
2021/12/21 06:32:20;;;;;;;28.60;13.50;;;;;;;-3.54;90.55;102631.13;5090975;28;20022;-81
2021/12/21 06:34:45;;;;;;;34.20;13.93;;;;;;;-3.53;90.71;102624.25;5090583;28;20024;-81
2021/12/21 06:37:14;;;;;;;34.15;14.13;;;;;;;-3.55;90.65;102623.38;5090176;28;20484;-81
2021/12/21 06:39:39;;;;;;;32.30;12.85;;;;;;;-3.57;90.77;102625.06;5090196;28;20036;-81
2021/12/21 06:42:05;;;;;;;34.75;14.23;;;;;;;-3.57;90.63;102625.94;5089533;28;20392;-80
2021/12/21 06:44:31;;;;;;;29.63;13.52;;;;;;;-3.64;90.41;102612.94;5078711;28;20457;-81
2021/12/21 06:52:13;;;;;;;31.17;14.52;;;;;;;-3.67;90.49;102625.78;5090207;28;20043;-81
2021/12/21 06:54:38;;;;;;;33.63;14.70;;;;;;;-3.59;91.23;102637.91;5088571;28;20028;-83
2021/12/21 06:57:04;;;;;;;33.08;14.68;;;;;;;-3.59;90.93;102637.06;5090177;28;20162;-81
2021/12/21 06:59:30;;;;;;;32.65;14.18;;;;;;;-3.68;90.75;102621.47;5086280;28;20019;-83
2021/12/21 07:01:55;;;;;;;29.38;13.70;;;;;;;-3.60;90.81;102632.72;5086158;28;20285;-84
2021/12/21 07:04:21;;;;;;;37.20;14.68;;;;;;;-3.66;90.67;102635.22;5089453;28;20447;-84
2021/12/21 07:06:46;;;;;;;31.40;14.18;;;;;;;-3.67;91.22;102633.50;5089886;28;20028;-83
2021/12/21 07:11:43;;;;;;;33.58;14.38;;;;;;;-3.65;91.50;102632.66;5089724;28;20063;-83
2021/12/21 07:19:37;;;;;;;29.48;13.77;;;;;;;-3.70;91.33;102628.31;5083586;28;20039;-82
2021/12/21 07:22:05;;;;;;;30.58;14.68;;;;;;;-3.61;91.47;102655.00;5089952;28;20028;-81
2021/12/21 07:24:30;;;;;;;33.67;14.82;;;;;;;-3.68;91.11;102642.06;5089221;28;20024;-81
2021/12/21 07:26:55;;;;;;;30.90;13.98;;;;;;;-3.71;91.40;102636.88;5090207;28;20476;-83
2021/12/21 07:29:21;;;;;;;33.08;14.48;;;;;;;-3.70;91.26;102641.16;5090292;28;20035;-83
2021/12/21 07:31:47;;;;;;;39.22;15.20;;;;;;;-3.70;91.30;102636.03;5097003;28;20032;-82
2021/12/21 07:34:12;;;;;;;31.15;14.30;;;;;;;-3.69;91.12;102645.47;5087999;28;20028;-82
2021/12/21 07:36:42;;;;;;;37.55;15.07;;;;;;;-3.64;91.45;102648.97;5084977;28;20081;-82
2021/12/21 07:39:09;;;;;;;31.08;15.05;;;;;;;-3.69;91.05;102650.59;5088306;28;20036;-82
2021/12/21 07:41:35;;;;;;;35.97;15.63;;;;;;;-3.75;90.70;102643.69;5090587;28;20077;-84
2021/12/21 07:44:00;;;;;;;32.13;14.88;;;;;;;-3.67;91.27;102661.78;5079490;28;20555;-83
2021/12/21 07:46:25;;;;;;;32.47;14.85;;;;;;;-3.73;90.90;102648.84;5081517;28;20039;-82
2021/12/21 07:48:54;;;;;;;29.70;14.20;;;;;;;-3.74;91.29;102652.25;5086588;28;20027;-83
2021/12/21 07:51:23;;;;;;;31.35;15.40;;;;;;;-3.84;90.73;102652.13;5090834;28;20038;-83
2021/12/21 07:53:49;;;;;;;33.22;14.55;;;;;;;-3.74;90.56;102657.41;5088464;28;20020;-83
2021/12/21 07:56:16;;;;;;;33.55;15.07;;;;;;;-3.78;91.08;102656.50;5087832;28;20420;-83
2021/12/21 07:58:42;;;;;;;35.80;15.38;;;;;;;-3.79;91.11;102649.63;5088582;28;20024;-82
2021/12/21 08:01:08;;;;;;;36.50;15.25;;;;;;;-3.85;90.78;102655.56;5086045;28;20031;-82
2021/12/21 08:03:34;;;;;;;39.97;15.15;;;;;;;-3.81;90.91;102665.03;5088004;28;20399;-81
2021/12/21 08:06:05;;;;;;;36.25;14.45;;;;;;;-3.74;90.97;102676.25;5088327;28;20036;-82
2021/12/21 08:08:31;;;;;;;29.08;14.85;;;;;;;-3.76;91.63;102674.50;5088473;28;20085;-82
2021/12/21 08:13:33;;;;;;;32.80;16.10;;;;;;;-3.82;91.24;102662.44;5088611;28;20110;-82
2021/12/21 08:15:59;;;;;;;33.80;15.73;;;;;;;-3.75;91.58;102671.09;5088454;28;20113;-81
2021/12/21 08:18:24;;;;;;;39.85;17.25;;;;;;;-3.74;91.18;102667.69;5088578;28;20020;-82
2021/12/21 08:20:50;;;;;;;32.17;16.02;;;;;;;-3.75;91.26;102664.25;5088655;28;20028;-82
2021/12/21 08:23:15;;;;;;;32.72;16.98;;;;;;;-3.71;91.68;102667.72;5088810;28;20489;-82
2021/12/21 08:25:41;;;;;;;38.40;16.75;;;;;;;-3.81;91.80;102657.31;5089136;28;20043;-82
2021/12/21 08:28:07;;;;;;;36.42;16.58;;;;;;;-3.73;91.39;102679.69;5087319;28;20109;-82
2021/12/21 08:30:33;;;;;;;38.92;17.65;;;;;;;-3.72;91.81;102666.88;5088731;28;20154;-82
2021/12/21 08:32:59;;;;;;;37.00;17.45;;;;;;;-3.78;91.53;102657.38;5087522;28;20035;-82
2021/12/21 08:35:25;;;;;;;40.30;18.27;;;;;;;-3.69;92.01;102660.91;5085867;28;20034;-82
2021/12/21 08:37:53;;;;;;;36.13;17.60;;;;;;;-3.74;91.76;102659.97;5088832;28;20064;-82
2021/12/21 08:40:24;;;;;;;36.72;18.02;;;;;;;-3.68;91.86;102668.63;5089603;28;20484;-82
2021/12/21 08:42:51;;;;;;;33.53;16.33;;;;;;;-3.71;92.00;102658.31;5088700;28;20102;-82
2021/12/21 08:45:16;;;;;;;34.80;17.08;;;;;;;-3.68;92.00;102663.50;5086816;28;20030;-83
2021/12/21 08:47:42;;;;;;;33.20;17.23;;;;;;;-3.67;91.92;102664.34;5088138;28;20036;-83
2021/12/21 08:50:10;;;;;;;34.65;16.77;;;;;;;-3.56;92.17;102678.25;5089295;28;20387;-82
2021/12/21 08:52:36;;;;;;;36.13;16.98;;;;;;;-3.50;92.43;102678.31;5088498;28;20032;-82
2021/12/21 08:55:04;;;;;;;43.70;18.70;;;;;;;-3.47;93.11;102673.22;5088910;28;20373;-82
2021/12/21 08:57:29;;;;;;;35.65;17.58;;;;;;;-3.46;93.24;102674.94;5086304;28;20024;-82
2021/12/21 08:59:55;;;;;;;44.95;19.30;;;;;;;-3.38;93.58;102668.19;5086735;28;20387;-83
2021/12/21 09:02:20;;;;;;;41.17;18.75;;;;;;;-3.39;93.24;102663.88;5083668;28;20023;-83
2021/12/21 09:04:45;;;;;;;38.72;18.45;;;;;;;-3.37;94.00;102664.78;5092820;28;20486;-83
2021/12/21 09:07:14;;;;;;;38.72;19.15;;;;;;;-3.33;94.55;102670.81;5092151;28;20031;-82
2021/12/21 09:09:39;;;;;;;37.65;17.90;;;;;;;-3.28;93.84;102675.16;5092012;28;20275;-82
2021/12/21 09:12:05;;;;;;;42.72;18.58;;;;;;;-3.22;94.15;102676.94;5091624;28;20459;-82
2021/12/21 09:14:32;;;;;;;38.67;18.65;;;;;;;-3.22;94.40;102672.66;5092110;28;20031;-85
2021/12/21 09:16:59;;;;;;;45.47;20.30;;;;;;;-3.07;94.78;102684.00;5092540;28;20054;-85
2021/12/21 09:19:24;;;;;;;45.50;21.92;;;;;;;-3.01;95.30;102682.38;5082447;28;20072;-85
2021/12/21 09:21:49;;;;;;;44.75;22.33;;;;;;;-2.99;95.49;102667.81;5091961;28;20099;-82
2021/12/21 09:24:15;;;;;;;47.65;23.83;;;;;;;-2.96;95.84;102672.97;5089697;28;20084;-83
2021/12/21 09:26:40;;;;;;;47.28;22.52;;;;;;;-2.85;95.98;102676.53;5090201;28;20111;-83
2021/12/21 09:29:06;;;;;;;44.90;22.85;;;;;;;-2.77;95.99;102679.22;5092295;28;20153;-83
2021/12/21 09:31:31;;;;;;;47.28;22.55;;;;;;;-2.71;95.90;102684.44;5090915;28;20039;-82
2021/12/21 09:33:56;;;;;;;45.92;22.85;;;;;;;-2.75;96.62;102659.47;5091922;28;20022;-82
2021/12/21 09:36:23;;;;;;;50.78;22.75;;;;;;;-2.61;96.24;102680.22;5086651;28;20027;-83
2021/12/21 09:38:48;;;;;;;47.53;22.65;;;;;;;-2.68;96.38;102669.00;5090495;28;20044;-83
2021/12/21 09:41:15;;;;;;;43.53;22.55;;;;;;;-2.50;96.79;102688.91;5091145;28;20393;-82
2021/12/21 09:43:41;;;;;;;47.17;23.40;;;;;;;-2.45;96.67;102681.22;5090422;28;20042;-82
2021/12/21 09:46:08;;;;;;;44.22;22.63;;;;;;;-2.43;96.78;102679.53;5092018;28;20024;-82
2021/12/21 09:48:34;;;;;;;49.05;22.70;;;;;;;-2.37;96.59;102684.75;5090388;28;20082;-82
2021/12/21 09:50:59;;;;;;;46.25;23.48;;;;;;;-2.42;96.83;102663.22;5088008;28;20063;-82
2021/12/21 09:53:26;;;;;;;43.78;22.95;;;;;;;-2.33;96.45;102679.63;5090741;28;20098;-82
2021/12/21 09:55:51;;;;;;;45.15;22.40;;;;;;;-2.33;96.30;102671.03;5091483;28;20028;-83
2021/12/21 09:58:16;;;;;;;41.75;22.27;;;;;;;-2.25;96.73;102670.25;5090353;28;20099;-83
2021/12/21 10:00:42;;;;;;;42.75;21.90;;;;;;;-2.23;96.29;102668.56;5091386;28;20043;-82
2021/12/21 10:03:10;;;;;;;43.78;21.95;;;;;;;-2.23;96.87;102658.25;5091768;28;20020;-83
2021/12/21 10:05:38;;;;;;;44.08;22.33;;;;;;;-2.18;96.21;102660.84;5090452;28;20023;-83
2021/12/21 10:08:08;;;;;;;44.30;23.33;;;;;;;-2.06;96.50;102666.09;5085103;28;20031;-81
2021/12/21 10:10:36;;;;;;;42.33;21.85;;;;;;;-2.05;96.06;102646.31;5071547;28;20029;-81
2021/12/21 10:13:18;;;;;;;43.72;22.27;;;;;;;-1.93;96.38;102654.16;5087192;28;20032;-81
2021/12/21 10:15:47;;;;;;;44.38;22.08;;;;;;;-1.91;95.88;102655.91;5090676;28;20040;-80
2021/12/21 10:18:13;;;;;;;40.45;21.02;;;;;;;-1.86;96.18;102665.38;5090394;28;20027;-80
2021/12/21 10:20:41;;;;;;;38.60;21.17;;;;;;;-1.79;95.86;102665.44;5089901;28;20355;-80
2021/12/21 10:23:17;;;;;;;37.35;21.23;;;;;;;-1.78;95.83;102661.13;5086077;28;20043;-80
2021/12/21 10:25:47;;;;;;;33.88;19.77;;;;;;;-1.68;96.05;102660.31;5086399;28;20024;-80
2021/12/21 10:28:40;;;;;;;41.17;20.77;;;;;;;-1.63;95.96;102645.72;5085334;28;20384;-80
2021/12/21 10:31:09;;;;;;;;;;;;;;;-1.53;96.17;102639.78;5071589;28;20047;-80
2021/12/21 10:33:35;;;;;;;40.97;18.75;;;;;;;-1.59;95.96;102629.44;5075356;28;19924;-79
2021/12/21 10:36:04;;;;;;;35.45;18.35;;;;;;;-1.49;95.76;102636.34;5075326;28;20028;-78
2021/12/21 10:38:54;;;;;;;36.83;17.75;;;;;;;-1.42;95.91;102638.09;5077144;28;20052;-79
2021/12/21 10:41:33;;;;;;;29.13;16.42;;;;;;;-1.38;95.88;102624.34;5075697;28;20027;-81
2021/12/21 10:44:04;;;;;;;27.70;15.98;;;;;;;-1.28;95.41;102635.56;5079152;28;20035;-79
2021/12/21 10:46:32;;;;;;;28.35;15.52;;;;;;;-1.20;95.01;102635.59;5079105;28;20101;-79
2021/12/21 10:49:15;;;;;;;30.10;15.48;;;;;;;-1.09;94.88;102636.50;5084465;28;20020;-80
2021/12/21 10:52:04;;;;;;;27.73;14.38;;;;;;;-1.02;94.20;102631.34;5079164;28;20515;-81
2021/12/21 10:54:33;;;;;;;32.20;13.70;;;;;;;-0.95;93.84;102637.41;5075794;28;20016;-80
2021/12/21 10:57:07;;;;;;;26.08;13.57;;;;;;;-0.90;94.26;102633.09;5076157;28;20021;-79
2021/12/21 10:59:35;;;;;;;25.42;12.90;;;;;;;-0.87;93.57;102620.19;5080494;28;20064;-79
2021/12/21 11:02:10;;;;;;;24.52;12.75;;;;;;;-0.75;93.52;102629.69;5082176;28;20028;-80
2021/12/21 11:04:40;;;;;;;19.92;11.82;;;;;;;-0.68;92.32;102631.44;5080628;28;20037;-80
2021/12/21 11:07:30;;;;;;;20.15;11.75;;;;;;;-0.65;92.04;102626.25;5081133;28;20043;-80
2021/12/21 11:10:12;;;;;;;21.20;11.57;;;;;;;-0.56;91.80;102630.56;5079904;28;20089;-80
2021/12/21 11:12:49;;;;;;;24.90;12.05;;;;;;;-0.48;91.61;102628.84;5078937;28;20028;-79
2021/12/21 11:15:17;;;;;;;23.20;11.80;;;;;;;-0.39;91.82;102628.88;5078601;28;20090;-81
2021/12/21 11:17:43;;;;;;;22.92;12.07;;;;;;;-0.32;91.86;102628.88;5078207;28;20116;-81
2021/12/21 11:20:12;;;;;;;20.48;11.30;;;;;;;-0.24;91.69;102636.63;5075931;28;20522;-80
2021/12/21 11:22:39;;;;;;;22.58;10.55;;;;;;;-0.15;90.39;102623.66;5077165;28;20038;-81
2021/12/21 11:25:07;;;;;;;20.08;10.80;;;;;;;-0.17;90.94;102604.69;5078231;28;20481;-80
2021/12/21 11:27:35;;;;;;;21.13;11.30;;;;;;;0.01;90.04;102614.19;5080120;28;20509;-80
2021/12/21 11:30:04;;;;;;;22.27;10.00;;;;;;;0.06;90.07;102603.81;5075564;28;20026;-81
2021/12/21 11:32:32;;;;;;;22.85;10.57;;;;;;;0.14;90.51;102604.66;5078320;28;20046;-80
2021/12/21 11:37:20;;;;;;;18.77;10.75;;;;;;;0.12;89.85;102583.97;5080923;28;20039;-80
2021/12/21 11:37:46;;;;;;;18.88;10.70;;;;;;;0.24;89.81;102583.03;5080501;28;20055;-79
2021/12/21 11:40:20;;;;;;;21.80;11.07;;;;;;;0.34;89.83;102579.56;5084258;28;20035;-80
2021/12/21 11:42:52;;;;;;;22.67;11.40;;;;;;;0.44;89.02;102565.72;5081546;28;20032;-79
2021/12/21 11:45:22;;;;;;;22.30;11.38;;;;;;;0.53;89.69;102573.44;5079835;28;20024;-80
2021/12/21 11:47:55;;;;;;;20.92;11.32;;;;;;;0.60;89.63;102579.44;5080123;28;20099;-80
2021/12/21 11:50:21;;;;;;;23.75;11.38;;;;;;;0.66;89.39;102570.78;5075800;28;20024;-79
2021/12/21 11:52:49;;;;;;;20.52;11.40;;;;;;;0.76;90.23;102575.91;5073886;28;20037;-80
2021/12/21 11:55:17;;;;;;;21.58;11.65;;;;;;;0.83;89.56;102576.75;5083918;28;20069;-80
2021/12/21 11:57:52;;;;;;;21.50;10.90;;;;;;;0.92;89.11;102576.69;5080182;28;20032;-78
2021/12/21 12:00:22;;;;;;;23.02;11.32;;;;;;;1.01;89.38;102568.84;5078408;28;20105;-78
2021/12/21 12:02:50;;;;;;;24.67;14.77;;;;;;;1.03;88.48;102561.94;5080919;28;20032;-81
2021/12/21 12:05:19;;;;;;;17.30;10.23;;;;;;;1.09;87.45;102558.44;5078470;28;20065;-78
2021/12/21 12:07:45;;;;;;;16.42;10.35;;;;;;;1.22;88.40;102566.13;5088666;28;20032;-78
2021/12/21 12:10:14;;;;;;;19.38;9.80;;;;;;;1.24;86.36;102554.00;5079156;28;20568;-78
2021/12/21 12:12:41;;;;;;;17.08;10.07;;;;;;;1.34;87.94;102562.56;5078745;28;20506;-79
2021/12/21 12:15:09;;;;;;;21.77;10.80;;;;;;;1.39;88.64;102552.16;5076817;28;20107;-78